Time;durP1;ratioP1;P1;durP2;ratioP2;P2;SDS_P1;SDS_P2;PMS_P1;PMS_P2;Temp;Humidity;BMP_temperature;BMP_pressure;BME280_temperature;BME280_humidity;BME280_pressure;Samples;Min_cycle;Max_cycle;Signal;HPM_P1;HPM_P2
2022/03/14 00:01:22;;;;;;;2.50;1.90;;;10.70;99.90;;;;;;5055453;28;20032;-76
2022/03/14 00:03:53;;;;;;;2.77;1.43;;;10.60;99.90;;;;;;5050331;28;20095;-82
2022/03/14 00:06:19;;;;;;;3.92;1.77;;;10.60;99.90;;;;;;5031960;28;20036;-77
2022/03/14 00:08:46;;;;;;;2.03;1.52;;;10.50;99.90;;;;;;5031394;28;20033;-77
2022/03/14 00:11:14;;;;;;;3.03;1.58;;;10.40;99.90;;;;;;5054508;28;20029;-82
2022/03/14 00:13:43;;;;;;;1.73;1.40;;;10.40;99.90;;;;;;5053918;28;20033;-76
2022/03/14 00:16:09;;;;;;;2.25;1.58;;;10.40;99.90;;;;;;5032578;28;20336;-76
2022/03/14 00:18:36;;;;;;;2.25;1.58;;;10.30;99.90;;;;;;5036715;28;20058;-76
2022/03/14 00:21:02;;;;;;;1.67;1.50;;;10.20;99.90;;;;;;5036280;28;20036;-76
2022/03/14 00:23:28;;;;;;;3.53;1.70;;;10.20;99.90;;;;;;5054301;28;20404;-75
2022/03/14 00:25:54;;;;;;;3.57;1.60;;;10.10;99.90;;;;;;5054199;28;20025;-75
2022/03/14 00:28:20;;;;;;;2.50;1.80;;;10.00;99.90;;;;;;5035423;28;20569;-76
2022/03/14 00:30:46;;;;;;;2.13;1.50;;;9.90;99.90;;;;;;5036074;28;20052;-75
2022/03/14 00:33:12;;;;;;;3.05;1.65;;;9.90;99.90;;;;;;5053392;28;20024;-76
2022/03/14 00:35:38;;;;;;;1.93;1.53;;;9.90;99.90;;;;;;5053315;28;20037;-77
2022/03/14 00:38:04;;;;;;;4.00;1.73;;;9.70;99.90;;;;;;5053908;28;20116;-77
2022/03/14 00:40:29;;;;;;;3.10;1.90;;;9.70;99.90;;;;;;5035912;28;20053;-76
2022/03/14 00:42:55;;;;;;;1.80;1.43;;;9.60;99.90;;;;;;5053364;28;20025;-76
2022/03/14 00:45:23;;;;;;;1.97;1.60;;;9.60;99.90;;;;;;5053351;28;20193;-81
2022/03/14 00:47:49;;;;;;;3.60;1.88;;;9.50;99.90;;;;;;5053836;28;20031;-76
2022/03/14 00:50:15;;;;;;;1.98;1.70;;;9.50;99.90;;;;;;5053997;28;20029;-76
2022/03/14 00:52:41;;;;;;;3.43;1.93;;;9.50;99.90;;;;;;5035981;28;20416;-76
2022/03/14 00:55:07;;;;;;;3.07;1.77;;;9.40;99.90;;;;;;5053512;28;20337;-77
2022/03/14 00:57:32;;;;;;;5.97;2.23;;;9.50;99.90;;;;;;5053376;28;20363;-76
2022/03/14 00:59:58;;;;;;;2.97;1.77;;;9.60;99.90;;;;;;5059363;28;20029;-76
2022/03/14 01:02:24;;;;;;;2.40;1.63;;;9.60;99.90;;;;;;5053214;28;20036;-76
2022/03/14 01:04:50;;;;;;;3.27;2.03;;;9.70;99.90;;;;;;5060512;28;20054;-77
2022/03/14 01:07:15;;;;;;;2.73;1.90;;;9.80;99.90;;;;;;5054130;28;20451;-76
2022/03/14 01:09:41;;;;;;;2.75;1.85;;;9.80;99.90;;;;;;5036258;28;20086;-75
2022/03/14 01:12:08;;;;;;;2.27;1.57;;;9.70;99.90;;;;;;5046167;28;20021;-82
2022/03/14 01:14:33;;;;;;;2.53;1.85;;;9.80;99.90;;;;;;5035286;28;20179;-77
2022/03/14 01:16:59;;;;;;;1.70;1.50;;;9.90;99.90;;;;;;5046004;28;20068;-76
2022/03/14 01:19:25;;;;;;;2.37;1.70;;;10.00;99.90;;;;;;5034076;28;20422;-76
2022/03/14 01:21:50;;;;;;;2.83;2.10;;;9.90;99.90;;;;;;5055027;28;20033;-76
2022/03/14 01:24:17;;;;;;;3.40;1.90;;;9.90;99.90;;;;;;5056845;28;20461;-76
2022/03/14 01:26:44;;;;;;;;;;;9.80;99.90;;;;;;5039293;28;20029;-76
2022/03/14 01:29:10;;;;;;;2.75;1.80;;;9.90;99.90;;;;;;5055334;28;19916;-83
2022/03/14 01:31:37;;;;;;;2.13;1.55;;;9.90;99.90;;;;;;5056149;28;20033;-76
2022/03/14 01:34:03;;;;;;;2.40;1.80;;;9.90;99.90;;;;;;5055936;28;20048;-77
2022/03/14 01:36:29;;;;;;;2.38;1.65;;;9.90;99.90;;;;;;5056459;28;20033;-75
2022/03/14 01:38:55;;;;;;;3.55;1.80;;;10.00;99.90;;;;;;5022291;28;20056;-85
2022/03/14 01:41:22;;;;;;;4.03;1.90;;;10.00;99.90;;;;;;5039436;28;20021;-76
2022/03/14 01:43:49;;;;;;;3.25;2.08;;;10.00;99.90;;;;;;5041638;28;20051;-76
2022/03/14 01:46:16;;;;;;;2.10;1.80;;;9.90;99.90;;;;;;5054591;28;20021;-85
2022/03/14 01:48:43;;;;;;;3.13;2.15;;;10.00;99.90;;;;;;5050715;28;20021;-76
2022/03/14 01:51:09;;;;;;;;;;;10.00;99.90;;;;;;5038823;28;20032;-76
2022/03/14 01:53:37;;;;;;;1.93;1.67;;;10.00;99.90;;;;;;5057280;28;19909;-76
2022/03/14 01:56:04;;;;;;;2.00;1.63;;;10.00;99.90;;;;;;5055415;28;20033;-76
2022/03/14 01:58:30;;;;;;;2.10;1.50;;;10.00;99.90;;;;;;5038121;28;20021;-76
2022/03/14 02:00:57;;;;;;;3.95;1.67;;;10.00;99.90;;;;;;5056147;28;20045;-76
2022/03/14 02:03:22;;;;;;;2.17;1.73;;;10.00;99.90;;;;;;5038116;28;20043;-85
2022/03/14 02:05:48;;;;;;;3.30;1.60;;;9.90;99.90;;;;;;5056070;28;20120;-76
2022/03/14 02:08:15;;;;;;;2.73;1.80;;;9.80;99.90;;;;;;5037265;28;20021;-76
2022/03/14 02:10:40;;;;;;;2.83;1.83;;;9.80;99.90;;;;;;5054470;28;20328;-76
2022/03/14 02:13:08;;;;;;;2.20;1.40;;;9.70;99.90;;;;;;5055594;28;20044;-77
2022/03/14 02:15:34;;;;;;;3.17;1.90;;;9.70;99.90;;;;;;5037904;28;20033;-76
2022/03/14 02:18:00;;;;;;;1.90;1.35;;;9.70;99.90;;;;;;5055643;28;20063;-76
2022/03/14 02:20:26;;;;;;;2.63;1.90;;;9.60;99.90;;;;;;5055453;28;20025;-83
2022/03/14 02:22:52;;;;;;;2.93;1.67;;;9.60;99.90;;;;;;5055223;28;20040;-76
2022/03/14 02:25:18;;;;;;;3.10;2.00;;;9.60;99.90;;;;;;5038135;28;20116;-76
2022/03/14 02:27:44;;;;;;;3.40;2.00;;;9.40;99.90;;;;;;5055503;28;20024;-76
2022/03/14 02:30:10;;;;;;;3.57;2.10;;;9.40;99.90;;;;;;5055610;28;20103;-76
2022/03/14 02:32:41;;;;;;;3.97;2.22;;;9.40;99.90;;;;;;5055321;28;20040;-76
2022/03/14 02:35:08;;;;;;;3.20;2.13;;;9.30;99.90;;;;;;5037565;28;20139;-76
2022/03/14 02:37:34;;;;;;;3.58;1.95;;;9.20;99.90;;;;;;5055343;28;20025;-76
2022/03/14 02:40:00;;;;;;;2.70;2.20;;;9.20;99.90;;;;;;5036896;28;20040;-75
2022/03/14 02:42:26;;;;;;;2.78;2.05;;;9.20;99.90;;;;;;5055166;28;20116;-75
2022/03/14 02:44:51;;;;;;;4.67;1.90;;;9.30;99.90;;;;;;5054974;28;20168;-76
2022/03/14 02:47:17;;;;;;;3.90;2.07;;;9.30;99.90;;;;;;5054961;28;20075;-77
2022/03/14 02:49:43;;;;;;;3.23;2.30;;;9.40;99.90;;;;;;5055178;28;20028;-76
2022/03/14 02:52:09;;;;;;;2.90;2.10;;;9.40;99.90;;;;;;5050741;28;20419;-75
2022/03/14 02:54:35;;;;;;;3.78;2.40;;;9.40;99.90;;;;;;5030689;28;20112;-82
2022/03/14 02:57:01;;;;;;;3.90;2.50;;;9.50;99.90;;;;;;5055380;28;20024;-76
2022/03/14 02:59:27;;;;;;;3.07;2.00;;;9.50;99.90;;;;;;5055348;28;20107;-76
2022/03/14 03:01:54;;;;;;;2.67;2.10;;;9.50;99.90;;;;;;5054654;28;20408;-75
2022/03/14 03:04:19;;;;;;;3.72;2.20;;;9.50;99.90;;;;;;5054961;28;20399;-76
2022/03/14 03:06:45;;;;;;;3.47;1.85;;;9.50;99.90;;;;;;5054904;28;20032;-76
2022/03/14 03:09:11;;;;;;;2.67;1.97;;;9.50;99.90;;;;;;5054967;28;20395;-76
2022/03/14 03:11:37;;;;;;;4.65;2.08;;;9.60;99.90;;;;;;5053312;28;20029;-84
2022/03/14 03:14:04;;;;;;;3.63;2.47;;;9.60;99.90;;;;;;5053881;28;20114;-76
2022/03/14 03:16:31;;;;;;;5.50;2.72;;;9.60;99.90;;;;;;5054764;28;20032;-77
2022/03/14 03:18:56;;;;;;;;;;;9.60;99.90;;;;;;5037295;28;20036;-76
2022/03/14 03:21:22;;;;;;;4.85;2.70;;;9.60;99.90;;;;;;5054931;28;19978;-76
2022/03/14 03:23:48;;;;;;;3.57;2.77;;;9.60;99.90;;;;;;5054292;28;20064;-76
2022/03/14 03:26:14;;;;;;;5.18;2.72;;;9.60;99.90;;;;;;5046692;28;20021;-76
2022/03/14 03:28:39;;;;;;;4.25;2.75;;;9.60;99.90;;;;;;5036817;28;20411;-78
2022/03/14 03:31:07;;;;;;;3.85;2.95;;;9.60;99.90;;;;;;5054568;28;20056;-76
2022/03/14 03:33:34;;;;;;;4.07;2.45;;;9.60;99.90;;;;;;5054837;28;20037;-76
2022/03/14 03:36:00;;;;;;;;;;;9.60;99.90;;;;;;5055312;28;20071;-76
2022/03/14 03:38:26;;;;;;;4.73;3.13;;;9.60;99.90;;;;;;5047012;28;20295;-76
2022/03/14 03:40:52;;;;;;;4.95;3.50;;;9.60;99.90;;;;;;5033468;28;20052;-76
2022/03/14 03:43:17;;;;;;;6.13;3.60;;;9.60;99.90;;;;;;5033043;28;20041;-76
2022/03/14 03:45:44;;;;;;;7.27;4.80;;;9.50;99.90;;;;;;5032880;28;20034;-75
2022/03/14 03:48:09;;;;;;;6.37;4.07;;;9.50;99.90;;;;;;5017327;28;20044;-76
2022/03/14 03:50:35;;;;;;;8.60;3.53;;;9.50;99.90;;;;;;5034435;28;20037;-76
2022/03/14 03:53:01;;;;;;;5.83;3.87;;;9.50;99.90;;;;;;5037589;28;20036;-76
2022/03/14 03:55:26;;;;;;;6.27;3.73;;;9.40;99.90;;;;;;5038765;28;20112;-85
2022/03/14 03:57:53;;;;;;;7.17;4.17;;;9.40;99.90;;;;;;5037822;28;20037;-76
2022/03/14 04:00:19;;;;;;;7.78;4.60;;;9.40;99.90;;;;;;5037785;28;20029;-76
2022/03/14 04:02:46;;;;;;;6.07;3.88;;;9.30;99.90;;;;;;5036753;28;20037;-75
2022/03/14 04:05:16;;;;;;;6.13;4.53;;;9.30;99.90;;;;;;5038626;28;20025;-76
2022/03/14 04:07:43;;;;;;;5.95;4.18;;;9.30;99.90;;;;;;5038203;28;20416;-75
2022/03/14 04:10:11;;;;;;;7.88;4.80;;;9.30;99.90;;;;;;5038259;28;20075;-75
2022/03/14 04:12:39;;;;;;;7.20;4.53;;;9.20;99.90;;;;;;5037860;28;20029;-76
2022/03/14 04:15:09;;;;;;;6.60;4.38;;;9.20;99.90;;;;;;5035394;28;20036;-76
2022/03/14 04:17:38;;;;;;;6.90;4.45;;;9.20;99.90;;;;;;5036975;28;20033;-76
2022/03/14 04:20:10;;;;;;;9.85;4.85;;;9.20;99.90;;;;;;5030221;28;20021;-76
2022/03/14 04:22:40;;;;;;;8.07;4.85;;;9.10;99.90;;;;;;5036228;28;20028;-76
2022/03/14 04:25:11;;;;;;;6.32;4.22;;;9.20;99.90;;;;;;5036674;28;20026;-75
2022/03/14 04:27:37;;;;;;;7.72;5.10;;;9.10;99.90;;;;;;5037798;28;20029;-76
2022/03/14 04:30:04;;;;;;;8.73;5.00;;;9.10;99.90;;;;;;5036832;28;20040;-75
2022/03/14 04:32:29;;;;;;;9.85;5.45;;;9.10;99.90;;;;;;5036850;28;20096;-75
2022/03/14 04:34:55;;;;;;;9.40;5.67;;;9.10;99.90;;;;;;5042424;28;20494;-85
2022/03/14 04:37:21;;;;;;;9.87;5.80;;;9.10;99.90;;;;;;5039869;28;20028;-76
2022/03/14 04:39:46;;;;;;;9.20;5.80;;;9.20;99.90;;;;;;5050991;28;20057;-76
2022/03/14 04:42:15;;;;;;;13.47;6.20;;;9.20;99.90;;;;;;5039800;28;20032;-76
2022/03/14 04:44:40;;;;;;;10.43;5.75;;;9.20;99.90;;;;;;5057641;28;20316;-76
2022/03/14 04:47:06;;;;;;;10.52;6.32;;;9.20;99.90;;;;;;5056923;28;20028;-76
2022/03/14 04:49:32;;;;;;;10.30;6.63;;;9.20;99.90;;;;;;5045883;28;20366;-76
2022/03/14 04:51:59;;;;;;;11.50;7.00;;;9.20;99.90;;;;;;5057362;28;20029;-85
2022/03/14 04:54:25;;;;;;;10.20;6.95;;;9.10;99.90;;;;;;5039157;28;20021;-75
2022/03/14 04:56:51;;;;;;;12.20;7.50;;;9.10;99.90;;;;;;5053529;28;20061;-75
2022/03/14 04:59:17;;;;;;;18.80;7.93;;;9.00;99.90;;;;;;5038379;28;20380;-75
2022/03/14 05:01:43;;;;;;;15.13;8.20;;;9.00;99.90;;;;;;5050636;28;20108;-76
2022/03/14 05:04:09;;;;;;;15.40;9.38;;;8.90;99.90;;;;;;5025230;28;20282;-75
2022/03/14 05:06:35;;;;;;;19.37;9.73;;;8.90;99.90;;;;;;5051641;28;20025;-76
2022/03/14 05:09:01;;;;;;;15.38;9.23;;;8.80;99.90;;;;;;5055297;28;20079;-76
2022/03/14 05:11:27;;;;;;;17.50;10.05;;;8.80;99.90;;;;;;5056236;28;20026;-75
2022/03/14 05:13:53;;;;;;;17.77;10.77;;;8.80;99.90;;;;;;5053718;28;20052;-75
2022/03/14 05:16:19;;;;;;;20.92;10.77;;;8.80;99.90;;;;;;5052694;28;20035;-75
2022/03/14 05:18:46;;;;;;;16.73;10.40;;;8.80;99.90;;;;;;5035457;28;20033;-76
2022/03/14 05:21:13;;;;;;;18.83;10.70;;;8.80;99.90;;;;;;5052742;28;20049;-76
2022/03/14 05:23:39;;;;;;;17.38;10.20;;;8.80;99.90;;;;;;5056315;28;20403;-76
2022/03/14 05:26:05;;;;;;;22.33;10.97;;;8.70;99.90;;;;;;5056540;28;20400;-89
2022/03/14 05:28:30;;;;;;;19.77;11.30;;;8.70;99.90;;;;;;5058632;28;20036;-76
2022/03/14 05:30:57;;;;;;;20.00;11.30;;;8.70;99.90;;;;;;5052354;28;20109;-75
2022/03/14 05:33:23;;;;;;;21.38;12.05;;;8.70;99.90;;;;;;5038937;28;20029;-75
2022/03/14 05:35:50;;;;;;;21.60;10.67;;;8.70;99.90;;;;;;5056950;28;20424;-75
2022/03/14 05:38:16;;;;;;;26.65;11.35;;;8.70;99.90;;;;;;5056389;28;20416;-76
2022/03/14 05:40:42;;;;;;;18.60;10.32;;;8.70;99.90;;;;;;5056130;28;20343;-75
2022/03/14 05:43:10;;;;;;;21.77;9.93;;;8.70;99.90;;;;;;5056583;28;20033;-88
2022/03/14 05:45:36;;;;;;;17.52;9.35;;;8.70;99.90;;;;;;5038048;28;20036;-75
2022/03/14 05:48:02;;;;;;;19.40;8.07;;;8.60;99.90;;;;;;5056641;28;20036;-74
2022/03/14 05:50:27;;;;;;;19.35;7.60;;;8.60;99.90;;;;;;5055615;28;20021;-74
2022/03/14 05:52:54;;;;;;;15.63;7.87;;;8.60;99.90;;;;;;5055472;28;20032;-76
2022/03/14 05:55:20;;;;;;;17.02;7.32;;;8.50;99.90;;;;;;5042470;28;20025;-75
2022/03/14 05:57:46;;;;;;;15.38;7.07;;;8.50;99.90;;;;;;5030547;28;20037;-74
2022/03/14 06:00:13;;;;;;;14.40;7.38;;;8.50;99.90;;;;;;5055158;28;20045;-86
2022/03/14 06:02:45;;;;;;;12.98;7.20;;;8.50;99.90;;;;;;5035754;28;20049;-76
2022/03/14 06:05:11;;;;;;;17.92;7.22;;;8.50;99.90;;;;;;5036156;28;20487;-75
2022/03/14 06:07:36;;;;;;;13.73;6.75;;;8.40;99.90;;;;;;5053782;28;20105;-75
2022/03/14 06:10:02;;;;;;;16.40;6.30;;;8.40;99.90;;;;;;5035845;28;20483;-75
2022/03/14 06:12:30;;;;;;;24.97;5.20;;;8.30;99.90;;;;;;5032608;28;20033;-75
2022/03/14 06:14:57;;;;;;;19.08;6.63;;;8.30;99.90;;;;;;5035626;28;20320;-75
2022/03/14 06:17:23;;;;;;;27.45;8.35;;;8.20;99.90;;;;;;5054735;28;20029;-75
2022/03/14 06:19:50;;;;;;;19.20;6.82;;;8.20;99.90;;;;;;5050913;28;20087;-74
2022/03/14 06:22:20;;;;;;;14.73;5.68;;;8.30;99.90;;;;;;5053127;28;20029;-86
2022/03/14 06:24:47;;;;;;;15.02;4.63;;;8.30;99.90;;;;;;5049262;28;20041;-90
2022/03/14 06:27:17;;;;;;;10.70;5.10;;;8.30;99.90;;;;;;5051352;28;20108;-75
2022/03/14 06:29:43;;;;;;;22.77;5.15;;;8.30;99.90;;;;;;5037008;28;20025;-75
2022/03/14 06:32:09;;;;;;;19.95;5.30;;;8.30;99.90;;;;;;5051291;28;20040;-87
2022/03/14 06:34:35;;;;;;;30.98;6.78;;;8.40;99.90;;;;;;5034260;28;20041;-75
2022/03/14 06:37:01;;;;;;;18.37;6.03;;;8.40;99.90;;;;;;5050383;28;20040;-76
2022/03/14 06:39:26;;;;;;;12.57;5.60;;;8.40;99.90;;;;;;5041764;28;20068;-75
2022/03/14 06:41:52;;;;;;;23.70;6.80;;;8.40;99.90;;;;;;5047760;28;20155;-88
2022/03/14 06:44:19;;;;;;;14.97;5.60;;;8.50;99.90;;;;;;5053157;28;20040;-87
2022/03/14 06:46:45;;;;;;;12.82;5.47;;;8.50;99.90;;;;;;5032304;28;20154;-79
2022/03/14 06:49:14;;;;;;;19.43;6.77;;;8.40;99.90;;;;;;5034371;28;20033;-76
2022/03/14 06:51:41;;;;;;;13.57;5.88;;;8.50;99.90;;;;;;5046815;28;20062;-76
2022/03/14 06:54:07;;;;;;;16.25;6.47;;;8.50;99.90;;;;;;5049981;28;20119;-75
2022/03/14 06:56:33;;;;;;;18.63;6.80;;;8.50;99.90;;;;;;5046251;28;20439;-75
2022/03/14 06:58:59;;;;;;;14.53;6.20;;;8.50;99.90;;;;;;5052916;28;20029;-79
2022/03/14 07:01:25;;;;;;;13.07;6.57;;;8.60;99.90;;;;;;5052626;28;20116;-75
2022/03/14 07:03:51;;;;;;;19.58;6.47;;;8.60;99.90;;;;;;5045042;28;20032;-76
2022/03/14 07:06:16;;;;;;;13.30;6.17;;;8.60;99.90;;;;;;5053974;28;20024;-75
2022/03/14 07:08:42;;;;;;;14.57;7.23;;;8.60;99.90;;;;;;5030046;28;20045;-76
2022/03/14 07:11:08;;;;;;;14.30;7.07;;;8.60;99.90;;;;;;5030511;28;20021;-88
2022/03/14 07:13:34;;;;;;;18.03;7.97;;;8.70;99.90;;;;;;5053723;28;20450;-87
2022/03/14 07:15:59;;;;;;;15.70;8.57;;;8.70;99.90;;;;;;5034761;28;20332;-76
2022/03/14 07:18:25;;;;;;;18.23;8.20;;;8.70;99.90;;;;;;5041999;28;20259;-76
2022/03/14 07:20:51;;;;;;;19.13;8.35;;;8.70;99.90;;;;;;5036135;28;20025;-76
2022/03/14 07:23:16;;;;;;;18.37;8.30;;;8.80;99.90;;;;;;5036470;28;20470;-88
2022/03/14 07:25:42;;;;;;;21.87;9.07;;;8.80;99.90;;;;;;5045240;28;20356;-75
2022/03/14 07:28:09;;;;;;;20.07;8.90;;;8.80;99.90;;;;;;5041165;28;20025;-88
2022/03/14 07:30:36;;;;;;;22.13;10.82;;;8.80;99.90;;;;;;5031871;28;20040;-76
2022/03/14 07:33:02;;;;;;;16.92;10.07;;;8.80;99.90;;;;;;5050930;28;20029;-88
2022/03/14 07:35:29;;;;;;;20.98;10.77;;;8.90;99.90;;;;;;5016901;28;20041;-90
2022/03/14 07:37:55;;;;;;;20.67;10.98;;;8.90;99.90;;;;;;5034481;28;20103;-88
2022/03/14 07:40:21;;;;;;;21.77;11.13;;;8.90;99.90;;;;;;5054745;28;20049;-93
2022/03/14 07:42:49;;;;;;;19.77;11.07;;;9.00;99.90;;;;;;5054886;28;20029;-88
2022/03/14 07:45:17;;;;;;;19.83;11.52;;;9.00;99.90;;;;;;5054382;28;20257;-88
2022/03/14 07:47:44;;;;;;;23.27;11.20;;;9.00;99.90;;;;;;5043713;28;20064;-76
2022/03/14 07:50:13;;;;;;;36.70;12.50;;;9.10;99.90;;;;;;5046923;28;20301;-88
2022/03/14 07:52:39;;;;;;;23.83;11.60;;;9.10;99.90;;;;;;5047569;28;20064;-88
2022/03/14 07:55:06;;;;;;;19.53;11.50;;;9.10;99.90;;;;;;5046804;28;20495;-89
2022/03/14 07:57:33;;;;;;;22.42;10.95;;;9.20;99.90;;;;;;5043439;28;20033;-81
2022/03/14 08:00:08;;;;;;;22.10;12.25;;;9.20;99.90;;;;;;5050576;28;20044;-85
2022/03/14 08:02:35;;;;;;;19.67;10.82;;;9.30;99.90;;;;;;5030114;28;20064;-89
2022/03/14 08:05:00;;;;;;;20.23;10.93;;;9.30;99.90;;;;;;5055283;28;20029;-83
2022/03/14 08:07:27;;;;;;;21.47;10.90;;;9.50;99.90;;;;;;5046511;28;20033;-89
2022/03/14 08:09:53;;;;;;;20.40;11.55;;;9.50;99.90;;;;;;5044994;28;20412;-76
2022/03/14 08:12:21;;;;;;;23.98;11.55;;;9.70;99.90;;;;;;5042901;28;20044;-77
2022/03/14 08:14:47;;;;;;;21.67;11.45;;;9.80;99.90;;;;;;5049491;28;20040;-76
2022/03/14 08:17:14;;;;;;;17.88;10.35;;;9.80;99.90;;;;;;5055216;28;20033;-87
2022/03/14 08:19:39;;;;;;;17.67;11.38;;;9.80;99.90;;;;;;5056181;28;20371;-75
2022/03/14 08:22:05;;;;;;;19.07;10.57;;;9.90;99.90;;;;;;5043765;28;20028;-76
2022/03/14 08:24:32;;;;;;;20.83;10.97;;;10.10;99.90;;;;;;5053364;28;20029;-75
2022/03/14 08:26:58;;;;;;;;;;;10.20;99.90;;;;;;5053540;28;20455;-76
2022/03/14 08:29:24;;;;;;;19.77;10.83;;;10.30;99.90;;;;;;5055333;28;20000;-75
2022/03/14 08:31:49;;;;;;;20.20;11.90;;;10.30;99.90;;;;;;5044776;28;20049;-76
2022/03/14 08:34:16;;;;;;;21.17;12.00;;;10.50;99.90;;;;;;5045302;28;20029;-87
2022/03/14 08:36:42;;;;;;;16.38;10.50;;;10.60;99.90;;;;;;5045592;28;20123;-76
2022/03/14 08:39:09;;;;;;;18.47;11.47;;;10.50;99.90;;;;;;5042787;28;20050;-75
2022/03/14 08:41:36;;;;;;;24.35;12.38;;;10.50;99.90;;;;;;5043826;28;20033;-75
2022/03/14 08:44:06;;;;;;;23.05;12.15;;;10.50;99.90;;;;;;5045045;28;20399;-76
2022/03/14 08:46:33;;;;;;;19.48;11.45;;;10.40;99.90;;;;;;5053069;28;20020;-76
2022/03/14 08:48:58;;;;;;;31.40;13.55;;;10.50;99.90;;;;;;5055949;28;20060;-76
2022/03/14 08:51:25;;;;;;;23.77;11.60;;;10.60;99.90;;;;;;5056121;28;20104;-85
2022/03/14 08:53:52;;;;;;;21.20;12.52;;;10.50;99.90;;;;;;5038988;28;20037;-75
2022/03/14 08:56:18;;;;;;;21.90;12.75;;;10.40;99.90;;;;;;5056794;28;20131;-76
2022/03/14 08:58:43;;;;;;;20.38;12.88;;;10.50;99.90;;;;;;5039540;28;20471;-76
2022/03/14 09:01:11;;;;;;;24.10;13.20;;;10.50;99.90;;;;;;5039254;28;20040;-75
2022/03/14 09:03:37;;;;;;;23.95;15.10;;;10.50;99.90;;;;;;5039232;28;20298;-76
2022/03/14 09:06:02;;;;;;;27.00;14.73;;;10.60;99.90;;;;;;5057207;28;20024;-76
2022/03/14 09:08:29;;;;;;;27.27;14.00;;;10.60;99.90;;;;;;5054538;28;20607;-76
2022/03/14 09:10:55;;;;;;;29.73;16.10;;;10.50;99.90;;;;;;5041307;28;20025;-76
2022/03/14 09:13:23;;;;;;;27.00;14.90;;;10.40;99.90;;;;;;5044731;28;20421;-76
2022/03/14 09:15:50;;;;;;;31.70;16.95;;;10.40;99.90;;;;;;5053561;28;20659;-76
2022/03/14 09:18:16;;;;;;;31.90;18.75;;;10.40;99.90;;;;;;5053877;28;20308;-88
2022/03/14 09:20:45;;;;;;;37.47;19.33;;;10.50;99.90;;;;;;5051333;28;20029;-76
2022/03/14 09:23:11;;;;;;;42.42;20.75;;;10.60;99.90;;;;;;5043641;28;20029;-75
2022/03/14 09:25:37;;;;;;;40.72;20.80;;;10.60;99.90;;;;;;5054144;28;20067;-76
2022/03/14 09:28:03;;;;;;;46.07;21.87;;;10.70;99.90;;;;;;5043350;28;20028;-76
2022/03/14 09:30:29;;;;;;;43.78;20.08;;;10.70;99.90;;;;;;5054124;28;20032;-76
2022/03/14 09:32:55;;;;;;;39.33;19.77;;;10.70;99.90;;;;;;5042768;28;20083;-89
2022/03/14 09:35:23;;;;;;;38.23;19.73;;;10.70;99.90;;;;;;5044066;28;20025;-76
2022/03/14 09:37:49;;;;;;;38.70;20.05;;;10.70;99.90;;;;;;5053104;28;20479;-75
2022/03/14 09:40:18;;;;;;;37.20;20.35;;;10.60;99.90;;;;;;5051843;28;20048;-75
2022/03/14 09:42:52;;;;;;;35.30;18.65;;;10.70;99.90;;;;;;5054148;28;20029;-76
2022/03/14 09:45:19;;;;;;;39.80;19.35;;;10.80;99.90;;;;;;5053331;28;20051;-76
2022/03/14 09:47:56;;;;;;;38.25;19.65;;;10.90;99.90;;;;;;5045115;28;20035;-76
2022/03/14 09:50:28;;;;;;;39.55;19.50;;;10.90;99.90;;;;;;5051915;28;20029;-76
2022/03/14 09:52:55;;;;;;;35.25;19.33;;;11.00;99.90;;;;;;5042550;28;20625;-75
2022/03/14 09:55:21;;;;;;;39.42;19.27;;;11.10;99.90;;;;;;5043804;28;20036;-86
2022/03/14 09:57:48;;;;;;;31.03;16.57;;;11.20;99.90;;;;;;5052337;28;20021;-76
2022/03/14 10:00:14;;;;;;;34.60;16.98;;;11.20;99.90;;;;;;5050415;28;20029;-76
2022/03/14 10:02:41;;;;;;;28.85;16.50;;;11.40;99.90;;;;;;5049819;28;20642;-75
2022/03/14 10:05:08;;;;;;;33.60;18.02;;;11.40;99.90;;;;;;5047065;28;20037;-75
2022/03/14 10:07:34;;;;;;;;;;;11.30;99.90;;;;;;5045707;28;20086;-76
2022/03/14 10:10:00;;;;;;;35.15;16.35;;;11.50;99.90;;;;;;5053701;28;20398;-75
2022/03/14 10:12:26;;;;;;;35.10;18.52;;;11.50;99.90;;;;;;5049134;28;20033;-89
2022/03/14 10:14:52;;;;;;;32.57;18.70;;;11.70;99.90;;;;;;5040231;28;20114;-75
2022/03/14 10:17:18;;;;;;;30.97;18.27;;;11.90;99.90;;;;;;5037843;28;20033;-76
2022/03/14 10:19:58;;;;;;;33.80;17.60;;;12.20;99.90;;;;;;5039699;28;20032;-76
2022/03/14 10:22:25;;;;;;;28.55;16.73;;;12.40;99.90;;;;;;5048358;28;20447;-76
2022/03/14 10:25:03;;;;;;;31.65;16.80;;;12.30;99.90;;;;;;5049658;28;20040;-76
2022/03/14 10:27:29;;;;;;;33.60;15.50;;;12.30;99.90;;;;;;5047658;28;20130;-76
2022/03/14 10:29:54;;;;;;;27.87;14.87;;;12.60;99.90;;;;;;5048139;28;20056;-76
2022/03/14 10:32:30;;;;;;;23.07;13.97;;;12.70;99.90;;;;;;5037767;28;20029;-76
2022/03/14 10:35:01;;;;;;;22.58;13.27;;;12.60;99.90;;;;;;5047312;28;20029;-76
2022/03/14 10:37:28;;;;;;;23.52;13.18;;;12.50;99.90;;;;;;5039451;28;20032;-76
2022/03/14 10:40:04;;;;;;;23.52;12.82;;;12.50;99.90;;;;;;5050268;28;20195;-77
2022/03/14 10:42:42;;;;;;;25.00;13.40;;;12.50;99.90;;;;;;5048830;28;20037;-76
2022/03/14 10:45:18;;;;;;;27.95;14.63;;;12.50;99.90;;;;;;5047469;28;20033;-76
2022/03/14 10:47:45;;;;;;;;;;;12.60;99.90;;;;;;5047493;28;20067;-77
2022/03/14 10:50:28;;;;;;;26.75;13.63;;;12.60;99.90;;;;;;5033245;28;19916;-76
2022/03/14 10:53:04;;;;;;;23.45;13.90;;;12.70;99.90;;;;;;5046179;28;20049;-76
2022/03/14 10:55:46;;;;;;;28.25;12.85;;;12.70;99.90;;;;;;5031819;28;20107;-76
2022/03/14 10:58:24;;;;;;;24.75;13.32;;;12.90;99.90;;;;;;5032850;28;20412;-77
2022/03/14 11:00:54;;;;;;;23.63;12.88;;;13.00;99.90;;;;;;5050017;28;20044;-76
2022/03/14 11:03:28;;;;;;;29.60;12.15;;;13.00;99.90;;;;;;5040377;28;20491;-76
2022/03/14 11:06:01;;;;;;;25.80;12.70;;;13.20;99.90;;;;;;5032742;28;20079;-77
2022/03/14 11:08:44;;;;;;;21.63;11.82;;;13.40;99.90;;;;;;5033761;28;20047;-76
2022/03/14 11:11:14;;;;;;;23.80;11.80;;;13.70;99.90;;;;;;5051593;28;20040;-79
2022/03/14 11:13:45;;;;;;;19.88;11.98;;;13.90;99.90;;;;;;5052727;28;20143;-85
2022/03/14 11:16:26;;;;;;;25.23;11.35;;;14.20;99.90;;;;;;5053324;28;20036;-88
2022/03/14 11:18:52;;;;;;;26.13;11.55;;;14.40;99.90;;;;;;5041396;28;20128;-88
2022/03/14 11:21:20;;;;;;;28.65;11.88;;;14.20;99.90;;;;;;5052792;28;20033;-88
2022/03/14 11:23:48;;;;;;;19.40;11.32;;;14.00;99.90;;;;;;5053626;28;20040;-86
2022/03/14 11:26:17;;;;;;;23.42;11.27;;;14.00;99.90;;;;;;5036634;28;20079;-87
2022/03/14 11:28:46;;;;;;;21.67;11.23;;;13.90;99.90;;;;;;5036289;28;20028;-88
2022/03/14 11:31:12;;;;;;;22.08;11.15;;;13.90;99.90;;;;;;5036230;28;20025;-89
2022/03/14 11:33:38;;;;;;;25.00;11.68;;;13.80;99.90;;;;;;5036423;28;20316;-77
2022/03/14 11:36:05;;;;;;;18.40;10.23;;;14.00;99.90;;;;;;5035500;28;20029;-88
2022/03/14 11:38:31;;;;;;;17.30;9.65;;;14.00;99.90;;;;;;5053533;28;20035;-89
2022/03/14 11:40:59;;;;;;;16.38;10.13;;;14.20;99.90;;;;;;5034205;28;20049;-88
2022/03/14 11:43:25;;;;;;;20.25;9.20;;;14.40;99.90;;;;;;5042712;28;20040;-86
2022/03/14 11:45:52;;;;;;;17.67;8.48;;;14.80;99.90;;;;;;5031700;28;20085;-89
2022/03/14 11:48:19;;;;;;;15.30;7.95;;;15.10;99.90;;;;;;5033838;28;20469;-88
2022/03/14 11:50:49;;;;;;;16.17;7.95;;;15.30;99.90;;;;;;5029780;28;20026;-84
2022/03/14 11:53:25;;;;;;;16.88;8.18;;;15.10;99.90;;;;;;5040276;28;20388;-79
2022/03/14 11:55:57;;;;;;;14.32;7.65;;;15.10;99.90;;;;;;5051811;28;20533;-84
2022/03/14 11:58:53;;;;;;;15.60;7.88;;;15.00;99.90;;;;;;5052056;28;20108;-86
2022/03/14 12:01:23;;;;;;;14.00;7.75;;;15.10;99.90;;;;;;5043350;28;20063;-86
2022/03/14 12:04:02;;;;;;;17.20;9.77;;;15.30;99.90;;;;;;5050009;28;20428;-83
2022/03/14 12:06:46;;;;;;;21.90;10.40;;;15.30;99.90;;;;;;5041804;28;20487;-86
2022/03/14 12:09:24;;;;;;;17.55;9.73;;;15.00;99.90;;;;;;5050509;28;20079;-86
2022/03/14 12:11:57;;;;;;;16.00;9.52;;;15.00;99.90;;;;;;5047969;28;20052;-85
2022/03/14 12:14:44;;;;;;;20.42;8.68;;;14.60;99.90;;;;;;5040860;28;20033;-85
2022/03/14 12:17:12;;;;;;;;;;;14.30;99.90;;;;;;5060342;28;20029;-83
2022/03/14 12:19:41;;;;;;;14.85;7.72;;;14.10;99.90;;;;;;5035573;28;19909;-86
2022/03/14 12:22:12;;;;;;;24.85;8.25;;;14.10;99.90;;;;;;5044651;28;20044;-87
2022/03/14 12:24:38;;;;;;;17.27;7.93;;;14.30;99.90;;;;;;5054102;28;20301;-85
2022/03/14 12:27:21;;;;;;;17.97;7.80;;;14.60;99.90;;;;;;5047290;28;20028;-86
2022/03/14 12:29:49;;;;;;;13.88;7.05;;;15.10;99.90;;;;;;5051240;28;20029;-84
2022/03/14 12:32:23;;;;;;;15.23;8.55;;;15.10;99.90;;;;;;5038691;28;20522;-86
2022/03/14 12:35:27;;;;;;;22.45;10.60;;;15.20;99.90;;;;;;5054592;28;20058;-78
2022/03/14 12:37:54;;;;;;;24.83;11.10;;;15.30;99.90;;;;;;5033390;28;20443;-84
2022/03/14 12:40:20;;;;;;;21.85;11.70;;;15.30;99.90;;;;;;5037553;28;20706;-79
2022/03/14 12:42:54;;;;;;;23.60;12.37;;;15.30;99.90;;;;;;5055027;28;20082;-79
2022/03/14 12:45:27;;;;;;;23.05;11.18;;;15.60;99.90;;;;;;5037973;28;20300;-82
2022/03/14 12:47:58;;;;;;;28.70;12.43;;;15.50;99.90;;;;;;5041619;28;20108;-84